Terminal Aerodrome Forecast
Issued by NWS

Home | Current Version | Previous Version | Text Only | Print | Product List | Glossary On
Versions: 1 2 3 4 5 6 7 8 9 10 11 12 13 14 15
000
FTUS43 KILX 302333
TAFBMI
TAF
KBMI 302333Z 3100/3124 VRB05KT P6SM SCT030
     FM310600 15005KT 4SM BR SCT250
     FM311200 19005KT 1 1/2SM BR FEW250
     FM311500 19008KT 5SM BR SCT250
     FM311800 20008KT P6SM SCT025=

USA.gov is the U.S. government's official web portal to all federal, state and local government web resources and services.